Time;durP1;ratioP1;P1;durP2;ratioP2;P2;SDS_P1;SDS_P2;PMS_P1;PMS_P2;Temp;Humidity;BMP_temperature;BMP_pressure;BME280_temperature;BME280_humidity;BME280_pressure;Samples;Min_cycle;Max_cycle;Signal;HPM_P1;HPM_P2
2024/04/12 00:01:42;;;;;;;7.80;5.40;;;8.20;81.20;;;7.33;83.53;99525.97;5445863;26;20448;-79
2024/04/12 00:04:15;;;;;;;6.83;5.47;;;8.20;81.20;;;7.26;83.89;99511.47;5446550;26;20606;-76
2024/04/12 00:06:42;;;;;;;6.07;4.60;;;8.20;81.40;;;7.29;84.02;99521.91;5445524;26;20824;-79
2024/04/12 00:09:17;;;;;;;6.70;5.00;;;8.20;81.60;;;7.27;84.04;99512.31;5437648;26;20467;-77
2024/04/12 00:11:44;;;;;;;8.47;5.03;;;8.10;81.50;;;7.22;83.95;99521.69;5449609;26;20822;-77
2024/04/12 00:14:16;;;;;;;6.13;4.63;;;8.10;81.70;;;7.17;84.57;99524.03;5479580;26;20462;-78
2024/04/12 00:16:43;;;;;;;7.97;5.67;;;8.00;81.90;;;7.04;85.25;99524.41;5430241;26;20459;-75
2024/04/12 00:19:18;;;;;;;6.03;4.50;;;7.90;82.30;;;7.10;85.41;99517.56;5446584;26;20870;-77
2024/04/12 00:21:46;;;;;;;9.00;5.20;;;7.90;82.60;;;7.02;85.58;99510.28;5480563;26;20805;-72
2024/04/12 00:24:16;;;;;;;7.03;5.87;;;7.90;82.60;;;7.11;84.82;99521.13;5418986;26;20511;-79
2024/04/12 00:26:46;;;;;;;11.03;6.37;;;7.90;82.90;;;7.12;84.85;99515.56;5446087;26;20714;-76
2024/04/12 00:29:25;;;;;;;7.73;5.63;;;7.90;82.80;;;7.07;84.85;99518.75;5427581;26;20519;-79
2024/04/12 00:31:54;;;;;;;9.40;5.57;;;7.90;82.90;;;6.88;85.30;99505.47;5457194;26;20457;-76
2024/04/12 00:34:26;;;;;;;6.53;5.80;;;7.80;82.90;;;6.96;85.35;99518.97;5448339;26;20437;-80
2024/04/12 00:36:54;;;;;;;9.13;6.27;;;7.80;82.90;;;6.93;85.60;99506.69;5460654;26;20491;-78
2024/04/12 00:39:35;;;;;;;7.97;5.90;;;7.80;83.10;;;6.93;85.72;99521.97;5456240;26;20464;-76
2024/04/12 00:42:07;;;;;;;11.00;5.50;;;7.70;83.20;;;6.86;86.40;99520.91;5448495;26;20914;-74
2024/04/12 00:44:39;;;;;;;7.87;5.30;;;7.70;83.60;;;6.88;86.41;99513.53;5447901;26;20879;-77
2024/04/12 00:47:10;;;;;;;6.73;5.63;;;7.70;83.70;;;6.79;86.62;99516.16;5450045;26;20924;-74
2024/04/12 00:49:49;;;;;;;7.53;5.60;;;7.70;83.80;;;6.78;86.64;99529.72;5448045;26;20476;-77
2024/04/12 00:52:16;;;;;;;9.73;5.60;;;7.60;83.70;;;6.76;86.17;99521.84;5456422;26;20632;-78
2024/04/12 00:54:46;;;;;;;6.40;5.17;;;7.60;83.70;;;6.71;86.35;99517.94;5473863;26;20453;-79
2024/04/12 00:57:14;;;;;;;6.80;5.53;;;7.60;83.60;;;6.65;86.51;99514.00;5462623;26;20508;-77
2024/04/12 00:59:45;;;;;;;6.83;5.10;;;7.50;83.60;;;6.62;86.84;99525.88;5469927;26;20458;-77
2024/04/12 01:02:11;;;;;;;7.63;5.30;;;7.40;84.20;;;6.54;87.38;99519.59;5474294;26;20466;-75
2024/04/12 01:04:41;;;;;;;7.67;5.80;;;7.40;84.20;;;6.46;87.47;99520.34;5438820;26;20478;-76
2024/04/12 01:07:13;;;;;;;6.40;5.70;;;7.30;84.60;;;6.14;88.03;99470.69;5439111;26;20983;-77
2024/04/12 01:09:44;;;;;;;7.03;5.60;;;7.30;84.90;;;6.41;88.17;99526.19;5440916;26;20469;-79
2024/04/12 01:12:16;;;;;;;7.50;5.90;;;7.20;85.10;;;6.38;87.96;99507.69;5443964;26;20455;-77
2024/04/12 01:14:49;;;;;;;7.60;5.30;;;7.20;85.10;;;6.40;87.89;99510.25;5454785;26;20572;-79
2024/04/12 01:17:17;;;;;;;8.83;5.80;;;7.20;85.20;;;6.43;88.03;99500.00;5453849;26;20502;-79
2024/04/12 01:19:46;;;;;;;6.90;4.80;;;7.20;85.40;;;6.40;88.53;99494.97;5444316;26;20528;-81
2024/04/12 01:22:14;;;;;;;6.70;5.17;;;7.20;85.50;;;6.32;88.77;99501.09;5444648;26;20447;-78
2024/04/12 01:24:45;;;;;;;6.00;5.13;;;7.20;85.90;;;6.34;88.75;99509.00;5451298;26;20584;-79
2024/04/12 01:27:12;;;;;;;9.00;5.10;;;7.10;85.90;;;6.30;88.90;99510.31;5459837;26;20515;-81
2024/04/12 01:29:41;;;;;;;6.37;5.77;;;7.10;86.10;;;6.21;89.48;99506.66;5454604;26;21046;-76
2024/04/12 01:32:07;;;;;;;11.97;5.10;;;7.00;86.00;;;6.11;90.25;99498.66;5470664;26;20440;-80
2024/04/12 01:34:38;;;;;;;6.30;5.70;;;7.00;87.10;;;6.16;90.27;99495.53;5439026;26;20518;-79
2024/04/12 01:37:05;;;;;;;6.10;5.50;;;7.00;87.30;;;6.12;90.58;99492.31;5419655;26;20579;-78
2024/04/12 01:39:34;;;;;;;5.43;4.93;;;7.00;87.30;;;6.05;90.48;99486.69;5472687;26;20511;-77
2024/04/12 01:42:04;;;;;;;8.43;4.90;;;7.00;87.50;;;6.04;90.88;99493.06;5428103;26;20913;-78
2024/04/12 01:44:33;;;;;;;6.70;5.70;;;6.90;87.60;;;6.00;90.44;99483.59;5445311;26;20469;-79
2024/04/12 01:47:03;;;;;;;6.20;5.60;;;6.90;87.50;;;6.06;90.27;99488.38;5448625;26;20957;-78
2024/04/12 01:49:34;;;;;;;7.40;5.53;;;6.90;87.30;;;6.01;90.59;99501.41;5452957;26;20448;-80
2024/04/12 01:52:03;;;;;;;8.57;5.70;;;6.80;87.40;;;5.98;90.64;99501.69;5460783;26;20458;-77
2024/04/12 01:54:32;;;;;;;9.27;6.30;;;6.80;87.90;;;5.86;91.38;99498.38;5450979;26;20456;-78
2024/04/12 01:57:03;;;;;;;13.23;12.03;;;6.70;88.20;;;5.84;91.80;99500.34;5435459;26;20595;-80
2024/04/12 01:59:34;;;;;;;6.70;5.93;;;6.70;88.50;;;5.88;91.43;99501.75;5469107;26;20465;-77
2024/04/12 02:02:04;;;;;;;6.43;5.07;;;6.70;89.00;;;5.84;92.05;99495.00;5463021;26;21049;-78
2024/04/12 02:04:34;;;;;;;6.10;5.10;;;6.70;88.90;;;5.76;92.19;99493.06;5451991;26;20582;-80
2024/04/12 02:07:00;;;;;;;8.53;6.17;;;6.70;88.40;;;5.63;92.22;99465.72;5454025;26;20597;-78
2024/04/12 02:09:29;;;;;;;6.97;5.27;;;6.70;88.70;;;5.79;92.27;99486.53;5439308;26;20471;-80
2024/04/12 02:11:57;;;;;;;7.60;4.43;;;6.70;89.30;;;5.82;92.33;99480.84;5450493;26;20499;-80
2024/04/12 02:14:28;;;;;;;9.47;5.67;;;6.70;89.20;;;5.37;92.23;99412.78;5467183;26;20452;-76
2024/04/12 02:16:58;;;;;;;7.43;5.10;;;6.70;89.10;;;5.76;92.33;99476.09;5437579;26;20487;-78
2024/04/12 02:19:30;;;;;;;8.73;5.30;;;6.70;89.00;;;5.84;92.66;99495.00;5457794;26;20440;-81
2024/04/12 02:21:56;;;;;;;6.40;5.40;;;6.70;89.60;;;5.82;92.58;99484.41;5456062;26;20616;-80
2024/04/12 02:24:24;;;;;;;8.80;6.00;;;6.70;89.50;;;5.83;92.36;99487.91;5442330;26;20507;-81
2024/04/12 02:26:53;;;;;;;8.17;5.80;;;6.70;89.40;;;5.79;92.47;99489.22;5456628;26;20569;-81
2024/04/12 02:29:22;;;;;;;6.00;5.20;;;6.70;89.70;;;5.62;92.86;99478.28;5427304;26;20456;-76
2024/04/12 02:31:50;;;;;;;7.10;5.80;;;6.60;90.00;;;5.72;93.20;99496.16;5480616;26;20966;-82
2024/04/12 02:34:24;;;;;;;6.83;5.67;;;6.60;90.00;;;5.73;93.18;99500.53;5442309;26;20548;-81
2024/04/12 02:36:50;;;;;;;5.87;5.37;;;6.60;90.00;;;5.66;93.33;99501.09;5463839;26;20455;-77
2024/04/12 02:39:23;;;;;;;9.43;5.63;;;6.60;90.10;;;5.63;92.86;99498.72;5415921;26;20859;-80
2024/04/12 02:41:49;;;;;;;6.80;4.80;;;6.50;89.80;;;5.53;92.93;99484.50;5473070;26;21034;-79
2024/04/12 02:44:19;;;;;;;6.57;5.97;;;6.50;89.90;;;5.59;93.05;99502.72;5422570;26;20483;-80
2024/04/12 02:46:45;;;;;;;6.87;5.40;;;6.50;90.00;;;5.46;93.46;99483.41;5464134;26;20533;-77
2024/04/12 02:49:15;;;;;;;6.17;5.67;;;6.50;90.10;;;5.43;93.72;99481.03;5468792;26;20838;-77
2024/04/12 02:51:47;;;;;;;7.60;6.00;;;6.40;90.30;;;5.58;93.43;99500.16;5467364;26;20988;-78
2024/04/12 02:54:17;;;;;;;6.60;5.23;;;6.40;90.30;;;5.53;93.54;99495.22;5476944;26;21497;-79
2024/04/12 02:56:44;;;;;;;7.30;5.77;;;6.40;90.40;;;5.48;93.86;99506.41;5456306;26;20534;-79
2024/04/12 02:59:15;;;;;;;7.70;5.50;;;6.40;90.30;;;5.45;94.09;99500.50;5410168;26;20533;-74
2024/04/12 03:01:41;;;;;;;6.23;5.63;;;6.40;90.40;;;5.38;94.62;99506.44;5456538;26;20511;-78
2024/04/12 03:04:10;;;;;;;6.93;6.17;;;6.30;90.50;;;5.26;95.04;99496.88;5411735;26;21038;-78
2024/04/12 03:06:38;;;;;;;6.53;5.83;;;6.30;90.60;;;5.35;94.51;99500.53;5447779;26;20701;-78
2024/04/12 03:09:11;;;;;;;5.63;5.10;;;6.30;90.70;;;5.42;94.33;99506.97;5461809;26;21390;-78
2024/04/12 03:11:37;;;;;;;5.90;4.93;;;6.30;90.70;;;5.36;94.74;99508.41;5454871;26;20478;-75
2024/04/12 03:14:09;;;;;;;7.57;6.00;;;6.30;90.70;;;5.35;94.04;99496.00;5432888;26;20576;-76
2024/04/12 03:16:36;;;;;;;7.37;6.57;;;6.30;90.70;;;4.91;94.13;99442.09;5428462;26;20459;-76
2024/04/12 03:19:07;;;;;;;6.10;5.50;;;6.20;90.40;;;5.33;94.48;99514.06;5442374;26;21112;-78
2024/04/12 03:21:35;;;;;;;8.20;5.30;;;6.20;90.70;;;5.19;95.02;99511.84;5453747;26;20512;-73
2024/04/12 03:24:04;;;;;;;6.93;5.70;;;6.20;90.70;;;4.76;96.01;99447.06;5470105;26;20576;-76
2024/04/12 03:26:33;;;;;;;8.13;6.60;;;6.20;90.90;;;5.14;96.00;99504.22;5433763;26;20486;-78
2024/04/12 03:29:05;;;;;;;6.63;5.00;;;6.10;90.80;;;5.30;95.20;99509.00;5461220;26;20453;-77
2024/04/12 03:31:33;;;;;;;8.00;6.27;;;6.20;90.90;;;5.26;94.66;99512.97;5479092;26;20477;-77
2024/04/12 03:34:06;;;;;;;8.20;6.40;;;6.20;90.50;;;5.25;94.19;99513.97;5465606;26;20526;-72
2024/04/12 03:36:40;;;;;;;6.23;5.63;;;6.20;90.60;;;5.29;94.33;99517.16;5441062;26;20471;-77
2024/04/12 03:39:34;;;;;;;6.50;5.30;;;6.20;90.60;;;5.22;94.29;99511.53;5467594;26;20458;-75
2024/04/12 03:42:04;;;;;;;10.57;5.47;;;6.10;90.70;;;5.21;94.35;99507.16;5458114;26;20552;-75
2024/04/12 03:44:34;;;;;;;8.40;5.50;;;6.10;90.40;;;5.24;94.30;99512.28;5462041;26;20448;-75
2024/04/12 03:47:07;;;;;;;9.60;6.10;;;6.10;90.60;;;5.07;94.34;99514.66;5469889;26;20454;-77
2024/04/12 03:49:39;;;;;;;12.60;5.97;;;6.00;90.30;;;5.08;94.64;99515.53;5463094;26;20594;-75
2024/04/12 03:52:11;;;;;;;8.17;6.27;;;6.00;90.40;;;4.88;94.87;99485.22;5472400;26;20458;-76
2024/04/12 03:54:42;;;;;;;10.43;6.20;;;6.00;90.40;;;4.94;94.92;99504.25;5460986;26;20469;-74
2024/04/12 03:57:12;;;;;;;8.30;5.80;;;6.00;90.50;;;4.96;94.87;99509.50;5455936;26;20476;-75
2024/04/12 03:59:43;;;;;;;11.83;5.83;;;5.90;90.60;;;4.38;95.24;99430.88;5451011;26;20520;-75
2024/04/12 04:02:13;;;;;;;7.60;5.83;;;5.90;90.40;;;4.91;95.06;99525.13;5433964;26;20469;-77
2024/04/12 04:04:47;;;;;;;13.20;5.80;;;5.90;90.50;;;4.84;95.48;99513.28;5450874;26;20457;-71
2024/04/12 04:07:15;;;;;;;8.70;5.20;;;5.80;90.40;;;4.79;95.64;99505.69;5445343;26;20807;-75
2024/04/12 04:09:45;;;;;;;7.07;5.47;;;5.80;90.70;;;4.82;95.53;99513.41;5459140;26;20580;-77
2024/04/12 04:12:14;;;;;;;7.03;6.10;;;5.80;90.70;;;4.78;95.78;99507.53;5446001;26;20936;-76
2024/04/12 04:14:48;;;;;;;6.33;5.73;;;5.80;90.80;;;4.82;95.64;99506.25;5440870;26;20462;-79
2024/04/12 04:17:15;;;;;;;6.47;5.87;;;5.80;91.00;;;4.71;95.69;99490.31;5449611;26;21200;-75
2024/04/12 04:19:45;;;;;;;11.90;6.70;;;5.70;90.70;;;4.90;95.54;99507.34;5480718;26;20507;-79
2024/04/12 04:22:21;;;;;;;6.97;6.27;;;5.70;91.00;;;4.82;95.58;99505.38;5460438;26;21596;-79
2024/04/12 04:24:52;;;;;;;7.93;6.30;;;5.80;91.10;;;4.71;96.54;99511.75;5430926;26;20466;-72
2024/04/12 04:27:22;;;;;;;7.60;6.17;;;5.70;91.10;;;4.75;96.43;99515.00;5442572;26;20455;-76
2024/04/12 04:29:51;;;;;;;7.10;6.20;;;5.80;91.10;;;4.68;96.31;99496.78;5471990;26;20529;-74
2024/04/12 04:32:20;;;;;;;8.37;6.20;;;5.80;91.00;;;4.85;96.00;99528.38;5478568;26;20509;-74
2024/04/12 04:34:54;;;;;;;9.43;6.80;;;5.80;90.90;;;4.56;95.63;99494.41;5413503;26;20862;-77
2024/04/12 04:37:20;;;;;;;8.87;6.70;;;5.80;90.30;;;4.88;95.15;99526.25;5427974;26;21203;-75
2024/04/12 04:39:51;;;;;;;9.97;6.53;;;5.80;90.60;;;4.80;94.88;99518.94;5448725;26;20524;-71
2024/04/12 04:42:23;;;;;;;7.13;6.20;;;5.80;90.10;;;4.92;94.80;99527.66;5434828;26;20556;-71
2024/04/12 04:44:52;;;;;;;9.40;6.70;;;5.90;90.30;;;4.96;93.92;99523.72;5452143;26;20468;-73
2024/04/12 04:47:18;;;;;;;8.33;6.17;;;5.90;90.10;;;5.07;93.11;99528.06;5468773;26;20452;-72
2024/04/12 04:49:48;;;;;;;10.37;7.40;;;6.00;89.40;;;5.31;92.24;99525.94;5421012;26;20510;-70
2024/04/12 04:52:15;;;;;;;8.03;6.60;;;6.20;89.30;;;5.64;90.57;99531.78;5437553;26;20516;-72
2024/04/12 04:54:44;;;;;;;11.37;6.87;;;6.50;88.00;;;6.00;88.74;99531.06;5446833;26;20858;-72
2024/04/12 04:57:12;;;;;;;12.00;7.00;;;6.80;86.40;;;6.02;86.94;99524.56;5456116;26;20966;-72
2024/04/12 04:59:44;;;;;;;9.40;6.27;;;7.10;84.80;;;6.19;87.05;99536.34;5446426;26;20472;-71
2024/04/12 05:02:11;;;;;;;6.20;5.30;;;7.40;84.00;;;6.32;85.27;99530.63;5436658;26;20536;-69
2024/04/12 05:04:42;;;;;;;8.43;6.93;;;7.60;82.90;;;6.60;85.20;99535.94;5457655;26;20531;-68
2024/04/12 05:07:08;;;;;;;11.73;7.37;;;7.80;82.50;;;6.74;83.59;99523.81;5440702;26;20613;-68
2024/04/12 05:09:38;;;;;;;10.80;7.40;;;7.90;81.70;;;6.90;82.87;99539.25;5454229;26;20451;-69
2024/04/12 05:12:05;;;;;;;12.53;6.13;;;8.10;81.10;;;7.04;81.37;99540.53;5439753;26;20595;-68
2024/04/12 05:14:54;;;;;;;12.70;6.70;;;8.30;80.30;;;7.26;79.65;99527.63;5452276;26;20460;-68
2024/04/12 05:17:23;;;;;;;10.67;5.57;;;8.70;79.60;;;7.32;79.71;99543.09;5457276;26;20574;-68
2024/04/12 05:19:53;;;;;;;10.77;5.90;;;8.60;79.00;;;7.31;79.46;99538.72;5453406;26;20456;-68
2024/04/12 05:22:20;;;;;;;8.70;6.07;;;8.60;79.00;;;6.93;78.68;99463.69;5454703;26;20446;-68
2024/04/12 05:24:52;;;;;;;6.93;6.23;;;8.60;78.70;;;7.50;78.48;99536.81;5427342;26;20476;-72
2024/04/12 05:27:20;;;;;;;6.83;5.67;;;8.70;78.70;;;7.56;78.46;99538.03;5429173;26;20450;-70
2024/04/12 05:29:50;;;;;;;13.53;7.37;;;8.70;79.00;;;7.57;78.32;99545.97;5425991;26;20522;-69
2024/04/12 05:32:20;;;;;;;9.43;6.80;;;8.60;78.80;;;7.66;78.26;99544.16;5425216;26;20458;-69
2024/04/12 05:34:52;;;;;;;7.10;6.40;;;8.50;79.00;;;7.25;79.18;99542.06;5454252;26;20672;-70
2024/04/12 05:37:20;;;;;;;9.73;6.60;;;8.30;78.90;;;6.96;80.79;99543.16;5450641;26;20451;-68
2024/04/12 05:39:51;;;;;;;8.30;6.60;;;8.10;79.30;;;7.10;81.08;99541.75;5448139;26;21231;-70
2024/04/12 05:42:17;;;;;;;15.40;6.60;;;8.00;79.70;;;6.98;80.73;99535.78;5425776;26;20447;-69
2024/04/12 05:44:46;;;;;;;13.60;6.70;;;8.00;79.70;;;7.17;80.61;99544.66;5460307;26;20608;-69
2024/04/12 05:47:13;;;;;;;11.27;7.30;;;8.00;80.40;;;7.07;81.02;99544.75;5461130;26;20502;-67
2024/04/12 05:49:43;;;;;;;9.47;7.77;;;8.00;80.60;;;7.20;80.73;99544.34;5459051;26;20510;-73
2024/04/12 05:52:19;;;;;;;13.30;10.10;;;8.00;80.30;;;7.15;81.48;99542.16;5423136;26;20358;-69
2024/04/12 05:54:50;;;;;;;8.87;7.23;;;8.00;80.40;;;7.36;80.41;99523.00;5443656;26;20918;-70
2024/04/12 05:57:19;;;;;;;10.07;8.00;;;8.20;80.60;;;7.54;79.59;99527.47;5432427;26;20468;-67
2024/04/12 05:59:50;;;;;;;8.43;7.00;;;8.30;80.20;;;7.58;79.46;99530.66;5427337;26;20484;-69
2024/04/12 06:02:18;;;;;;;10.33;5.87;;;8.30;80.30;;;7.59;79.57;99530.50;5438687;26;20444;-70
2024/04/12 06:04:48;;;;;;;7.37;6.30;;;8.30;80.30;;;7.94;78.10;99534.03;5433776;26;20475;-68
2024/04/12 06:07:18;;;;;;;7.40;6.50;;;8.50;80.10;;;7.94;77.71;99528.66;5432098;26;20458;-69
2024/04/12 06:09:48;;;;;;;6.93;6.33;;;8.60;79.80;;;7.89;78.91;99522.09;5439539;26;20544;-68
2024/04/12 06:12:16;;;;;;;8.73;7.83;;;8.60;80.20;;;8.22;78.83;99517.66;5424995;26;20457;-68
2024/04/12 06:14:46;;;;;;;8.20;6.00;;;8.90;80.60;;;8.10;78.07;99516.28;5455179;26;21126;-70
2024/04/12 06:17:12;;;;;;;11.77;8.57;;;8.90;79.70;;;8.02;77.55;99517.09;5432558;26;20508;-69
2024/04/12 06:19:41;;;;;;;10.83;7.40;;;8.90;79.20;;;8.20;77.75;99524.25;5439986;26;20852;-69
2024/04/12 06:22:13;;;;;;;9.00;7.90;;;8.90;79.70;;;8.19;77.19;99523.38;5458991;26;21032;-68
2024/04/12 06:24:48;;;;;;;9.40;6.60;;;9.00;79.30;;;8.69;75.90;99517.31;5453086;26;20541;-68
2024/04/12 06:27:16;;;;;;;8.57;7.07;;;9.30;79.10;;;8.53;75.67;99523.50;5460946;26;20840;-69
2024/04/12 06:29:47;;;;;;;8.07;6.93;;;9.40;78.60;;;8.52;75.44;99524.50;5457670;26;20474;-70
2024/04/12 06:32:16;;;;;;;9.50;7.27;;;9.40;78.30;;;8.31;74.86;99474.63;5430673;26;20452;-70
2024/04/12 06:34:46;;;;;;;12.00;6.07;;;9.50;78.20;;;9.18;73.86;99522.72;5427240;26;21172;-71
2024/04/12 06:37:15;;;;;;;8.00;6.97;;;9.70;78.60;;;9.68;72.49;99527.19;5457356;26;20512;-70
2024/04/12 06:39:48;;;;;;;9.17;6.40;;;10.20;77.00;;;9.75;71.19;99533.56;5426415;26;20986;-70
2024/04/12 06:42:17;;;;;;;8.90;6.90;;;10.40;76.30;;;9.79;70.40;99534.94;5430590;26;20412;-70
2024/04/12 06:44:54;;;;;;;9.70;7.23;;;10.50;75.70;;;9.55;71.00;99527.72;5454664;26;20280;-69
2024/04/12 06:47:21;;;;;;;8.70;7.13;;;10.40;75.40;;;9.69;70.42;99534.28;5427601;26;21208;-69
2024/04/12 06:49:52;;;;;;;8.20;6.57;;;10.60;75.20;;;9.68;70.94;99536.13;5420151;26;20247;-70
2024/04/12 06:52:22;;;;;;;10.13;6.30;;;10.60;75.20;;;9.80;70.66;99542.03;5445690;26;21120;-69
2024/04/12 06:54:54;;;;;;;7.73;7.00;;;10.60;74.90;;;9.98;70.42;99538.25;5431190;26;20904;-71
2024/04/12 06:57:21;;;;;;;7.50;6.77;;;10.70;75.10;;;10.16;68.93;99537.97;5424011;26;20458;-71
2024/04/12 06:59:58;;;;;;;14.20;7.27;;;10.90;74.70;;;10.35;68.61;99539.41;5431457;26;20541;-69
2024/04/12 07:02:24;;;;;;;10.20;7.60;;;11.00;74.60;;;10.00;69.36;99541.59;5455482;26;20457;-71
2024/04/12 07:04:54;;;;;;;11.27;7.10;;;11.00;74.10;;;9.98;68.90;99505.84;5423182;26;21150;-71
2024/04/12 07:07:22;;;;;;;8.87;7.57;;;11.00;74.10;;;10.45;68.42;99533.81;5463697;26;20775;-70
2024/04/12 07:10:01;;;;;;;11.20;6.63;;;11.20;74.20;;;10.66;67.62;99530.50;5457545;26;20858;-69
2024/04/12 07:12:31;;;;;;;14.17;7.60;;;11.40;73.70;;;10.80;66.75;99536.16;5432158;26;21153;-69
2024/04/12 07:15:00;;;;;;;9.13;7.30;;;11.50;73.40;;;11.03;66.39;99537.00;5468689;26;20779;-70
2024/04/12 07:17:28;;;;;;;6.70;5.97;;;11.60;73.30;;;11.48;64.44;99549.81;5454213;26;20455;-72
2024/04/12 07:19:59;;;;;;;7.63;6.93;;;11.90;72.70;;;11.75;63.45;99553.75;5421680;26;20508;-68
2024/04/12 07:22:27;;;;;;;10.43;6.80;;;12.20;72.20;;;11.71;63.49;99554.31;5456034;26;20441;-70
2024/04/12 07:25:01;;;;;;;10.43;6.90;;;12.40;71.70;;;11.48;63.09;99557.94;5453837;26;21218;-68
2024/04/12 07:27:27;;;;;;;9.47;7.10;;;12.40;71.00;;;11.32;64.57;99557.06;5465070;26;20463;-70
2024/04/12 07:29:57;;;;;;;8.90;7.40;;;12.20;71.20;;;11.55;63.46;99553.44;5393900;26;20508;-69
2024/04/12 07:32:25;;;;;;;8.60;7.50;;;12.30;71.00;;;11.64;63.71;99556.91;5451969;26;20360;-69
2024/04/12 07:34:54;;;;;;;14.30;7.20;;;12.30;70.90;;;11.68;63.26;99547.41;5437018;26;20240;-69
2024/04/12 07:37:28;;;;;;;8.87;7.30;;;12.30;70.70;;;11.34;64.13;99549.59;5450760;26;20465;-69
2024/04/12 07:40:24;;;;;;;7.90;7.20;;;12.30;70.60;;;11.74;63.33;99559.34;5457851;26;20458;-69
2024/04/12 07:42:52;;;;;;;9.53;7.60;;;12.30;70.80;;;11.83;62.77;99542.00;5461815;26;20453;-69
2024/04/12 07:45:25;;;;;;;8.83;7.93;;;12.50;70.80;;;11.60;62.45;99482.53;5434759;26;20517;-69
2024/04/12 07:47:53;;;;;;;8.63;7.40;;;12.50;70.60;;;11.95;62.38;99555.09;5472059;26;20480;-69
2024/04/12 07:50:28;;;;;;;12.50;8.00;;;12.60;70.00;;;11.81;62.41;99544.06;5474504;26;20461;-70
2024/04/12 07:52:58;;;;;;;10.27;7.87;;;12.60;69.90;;;12.24;61.64;99550.72;5465420;26;20527;-70
2024/04/12 07:55:34;;;;;;;8.77;7.77;;;12.80;69.90;;;12.38;60.64;99549.00;5441113;26;20471;-70
2024/04/12 07:58:01;;;;;;;9.40;6.90;;;12.90;69.60;;;12.58;60.46;99539.22;5463823;26;20452;-69
2024/04/12 08:00:45;;;;;;;8.13;7.30;;;13.20;69.20;;;12.65;60.59;99538.47;5439602;26;20862;-69
2024/04/12 08:03:15;;;;;;;8.70;7.80;;;13.30;69.10;;;12.83;59.55;99549.72;5448718;26;20511;-68
2024/04/12 08:08:43;;;;;;;8.77;7.80;;;13.70;68.00;;;13.09;58.19;99540.16;5467517;26;20510;-67
2024/04/12 08:14:05;;;;;;;12.20;7.40;;;13.80;67.20;;;13.17;57.76;99522.91;5452974;26;20446;-69
2024/04/12 08:16:35;;;;;;;12.43;8.10;;;13.90;66.90;;;13.34;58.09;99536.19;5441960;26;20463;-69
2024/04/12 08:19:12;;;;;;;7.73;7.10;;;14.10;66.80;;;13.48;57.06;99532.56;5456898;26;20469;-70
2024/04/12 08:21:41;;;;;;;7.70;7.00;;;14.20;66.50;;;13.54;56.78;99531.78;5424844;26;20518;-68
2024/04/12 08:24:14;;;;;;;9.30;6.90;;;14.20;66.00;;;13.46;56.42;99523.78;5433505;26;20473;-69
2024/04/12 08:26:45;;;;;;;12.23;7.50;;;14.20;65.60;;;13.80;55.61;99529.44;5456287;26;20462;-69
2024/04/12 08:29:20;;;;;;;14.13;7.30;;;14.40;65.30;;;13.79;54.93;99534.03;5441246;26;20479;-69
2024/04/12 08:31:47;;;;;;;10.67;7.00;;;14.50;64.60;;;13.98;54.14;99534.34;5465723;26;20528;-68
2024/04/12 08:34:17;;;;;;;8.13;6.50;;;14.60;63.60;;;14.27;53.37;99537.84;5454370;26;20462;-69
2024/04/12 08:36:45;;;;;;;7.00;6.10;;;14.80;63.50;;;14.36;52.81;99527.63;5443767;26;20462;-69
2024/04/12 08:39:25;;;;;;;8.13;7.03;;;15.00;62.80;;;14.46;51.81;99536.25;5470655;26;20518;-69
2024/04/12 08:41:59;;;;;;;9.40;7.50;;;15.10;61.90;;;14.67;52.09;99523.53;5463790;26;20600;-67
2024/04/12 08:44:30;;;;;;;8.07;6.60;;;15.20;62.10;;;14.82;51.03;99516.06;5468235;26;20547;-68
2024/04/12 08:47:15;;;;;;;13.77;7.37;;;15.30;61.50;;;15.00;50.26;99504.59;5460381;26;20582;-69
2024/04/12 08:49:48;;;;;;;7.07;6.37;;;15.50;60.70;;;14.77;50.76;99520.44;5447043;26;20977;-69
2024/04/12 08:52:24;;;;;;;7.13;6.43;;;15.50;60.30;;;15.14;50.48;99512.75;5438206;26;20458;-68
2024/04/12 08:54:59;;;;;;;7.73;6.13;;;15.60;60.50;;;15.05;49.94;99503.13;5449760;26;20509;-69
2024/04/12 08:57:27;;;;;;;10.17;7.00;;;15.70;59.70;;;15.16;49.65;99513.38;5471886;26;20514;-69
2024/04/12 08:59:58;;;;;;;8.00;6.00;;;15.80;59.50;;;15.26;49.03;99505.66;5447890;26;20494;-68
2024/04/12 09:02:34;;;;;;;9.40;7.27;;;15.80;58.90;;;15.47;48.53;99511.91;5437684;26;20453;-68
2024/04/12 09:05:06;;;;;;;7.40;5.80;;;16.00;58.80;;;15.54;48.50;99510.03;5430729;26;20464;-68
2024/04/12 09:07:35;;;;;;;9.57;7.20;;;16.10;58.70;;;15.41;48.62;99456.41;5424237;26;20439;-68
2024/04/12 09:10:06;;;;;;;10.57;6.77;;;16.20;58.80;;;15.82;48.19;99518.97;5442234;26;20491;-69
2024/04/12 09:12:36;;;;;;;10.70;7.30;;;16.30;58.50;;;15.84;48.79;99511.44;5446363;26;20441;-69
2024/04/12 09:15:13;;;;;;;8.70;6.60;;;16.40;58.40;;;15.97;48.10;99513.28;5454638;26;20464;-68
2024/04/12 09:17:41;;;;;;;9.60;7.40;;;16.50;58.30;;;15.94;48.08;99517.31;5461322;26;20524;-69
2024/04/12 09:20:29;;;;;;;10.43;7.07;;;16.50;57.90;;;15.93;48.43;99520.22;5435095;26;20471;-71
2024/04/12 09:22:56;;;;;;;9.73;8.00;;;16.50;58.00;;;15.93;47.91;99503.88;5429571;26;20584;-69
2024/04/12 09:25:26;;;;;;;11.10;7.63;;;16.60;57.80;;;15.96;48.34;99511.63;5472533;26;20496;-69
2024/04/12 09:27:57;;;;;;;8.27;7.43;;;16.50;57.90;;;16.05;48.19;99518.53;5457794;26;20518;-69
2024/04/12 09:33:20;;;;;;;8.73;6.93;;;16.70;57.90;;;16.33;47.75;99501.00;5431862;26;20551;-68
2024/04/12 09:35:53;;;;;;;8.13;6.90;;;16.80;57.80;;;16.51;47.73;99513.09;5415914;26;20486;-69
2024/04/12 09:38:21;;;;;;;7.00;6.33;;;17.00;57.90;;;16.48;47.73;99511.63;5441813;26;20559;-67
2024/04/12 09:41:02;;;;;;;7.47;6.77;;;17.00;57.70;;;16.51;48.19;99510.38;5451395;26;20472;-68
2024/04/12 09:43:36;;;;;;;7.80;6.80;;;17.10;58.00;;;16.37;48.51;99509.56;5454722;26;20447;-68
2024/04/12 09:46:10;;;;;;;8.20;6.60;;;17.00;57.80;;;16.33;48.87;99487.38;5463439;26;20537;-68
2024/04/12 10:39:16;;;;;;;10.97;8.00;;;18.50;56.90;;;17.93;44.18;99449.94;5461118;26;20471;-71
2024/04/12 10:41:45;;;;;;;7.80;6.53;;;18.50;55.50;;;18.37;43.70;99438.88;5461478;26;20449;-72
2024/04/12 10:44:16;;;;;;;5.97;5.37;;;18.80;55.30;;;18.21;42.77;99437.63;5419321;26;20453;-71
2024/04/12 10:46:45;;;;;;;7.27;5.20;;;18.70;54.40;;;18.71;42.99;99443.84;5450991;26;20503;-70
2024/04/12 10:49:14;;;;;;;7.10;5.63;;;19.00;55.00;;;19.01;43.04;99442.97;5456935;26;20451;-70
2024/04/12 10:51:43;;;;;;;8.37;6.10;;;19.20;55.10;;;19.34;42.14;99430.63;5445128;26;21227;-71
2024/04/12 10:54:14;;;;;;;7.33;6.20;;;19.60;54.90;;;19.35;42.15;99437.78;5415775;26;20475;-72
2024/04/12 10:56:53;;;;;;;6.70;5.83;;;19.80;54.50;;;18.85;41.49;99439.00;5426071;26;20466;-72
2024/04/12 10:59:26;;;;;;;6.80;5.83;;;19.60;53.10;;;18.75;42.61;99434.13;5443354;26;20470;-71
2024/04/12 11:01:59;;;;;;;6.77;6.07;;;19.50;53.70;;;19.40;40.89;99424.19;5421434;26;21064;-72
2024/04/12 11:04:34;;;;;;;6.70;5.87;;;19.70;53.30;;;19.29;40.75;99425.03;5417159;26;20524;-70
2024/04/12 11:07:04;;;;;;;6.47;5.40;;;19.70;52.60;;;19.10;40.33;99420.47;5428332;26;21504;-71
2024/04/12 11:09:38;;;;;;;7.33;5.70;;;19.70;52.20;;;19.11;40.79;99411.22;5422511;26;21015;-73
2024/04/12 11:12:16;;;;;;;6.47;5.27;;;19.60;52.30;;;19.58;39.99;99419.63;5441874;26;20990;-69
2024/04/12 11:14:50;;;;;;;6.10;5.50;;;20.00;52.30;;;19.29;40.68;99414.91;5449533;26;20517;-70
2024/04/12 11:31:24;;;;;;;6.10;4.70;;;20.60;48.20;;;20.41;36.25;99404.88;5460623;26;20984;-70
2024/04/12 11:33:54;;;;;;;7.40;4.80;;;20.80;49.10;;;20.55;35.19;99403.47;5428342;26;20468;-70
2024/04/12 11:36:33;;;;;;;7.17;5.37;;;21.00;48.20;;;20.29;35.50;99400.25;5461592;26;20508;-70
2024/04/12 11:39:17;;;;;;;9.43;4.97;;;20.90;48.30;;;20.27;35.78;99383.22;5398024;26;20485;-71
2024/04/12 11:41:47;;;;;;;5.97;4.80;;;20.80;48.00;;;20.59;35.50;99390.06;5471618;26;20937;-70
2024/04/12 11:44:17;;;;;;;6.10;5.47;;;21.10;48.30;;;20.32;35.68;99380.56;5441052;26;20526;-70
2024/04/12 11:46:48;;;;;;;5.50;4.90;;;21.00;47.80;;;20.54;34.99;99379.81;5459514;26;20448;-70
2024/04/12 11:49:25;;;;;;;7.10;3.90;;;20.90;47.60;;;20.80;33.74;99380.25;5462710;26;20496;-70
2024/04/12 11:51:59;;;;;;;5.33;3.27;;;21.10;46.80;;;20.62;32.71;99370.34;5435497;26;20850;-71
2024/04/12 11:54:29;;;;;;;6.23;5.03;;;21.10;45.80;;;20.59;33.58;99368.94;5462347;26;20450;-70